sensor_id;sensor_type;location;lat;lon;timestamp;temperature;humidity
3005;DHT22;1512;51.486;6.610;2023-06-01T00:03:37;16.30;99.90
3005;DHT22;1512;51.486;6.610;2023-06-01T00:07:46;16.20;99.90
3005;DHT22;1512;51.486;6.610;2023-06-01T00:11:55;16.10;99.90
3005;DHT22;1512;51.486;6.610;2023-06-01T00:20:24;15.90;99.90
3005;DHT22;1512;51.486;6.610;2023-06-01T00:24:35;15.70;99.90
3005;DHT22;1512;51.486;6.610;2023-06-01T00:28:43;15.50;99.90
3005;DHT22;1512;51.486;6.610;2023-06-01T00:32:52;15.30;1.00
3005;DHT22;1512;51.486;6.610;2023-06-01T00:37:01;15.20;1.00
3005;DHT22;1512;51.486;6.610;2023-06-01T00:41:29;15.00;1.00
3005;DHT22;1512;51.486;6.610;2023-06-01T00:45:38;14.90;1.00
3005;DHT22;1512;51.486;6.610;2023-06-01T00:49:47;14.80;1.00
3005;DHT22;1512;51.486;6.610;2023-06-01T00:53:55;14.90;1.00
3005;DHT22;1512;51.486;6.610;2023-06-01T00:58:06;14.80;1.00
3005;DHT22;1512;51.486;6.610;2023-06-01T01:02:15;14.90;1.00
3005;DHT22;1512;51.486;6.610;2023-06-01T01:10:45;14.70;1.00
3005;DHT22;1512;51.486;6.610;2023-06-01T01:15:09;14.70;1.00
3005;DHT22;1512;51.486;6.610;2023-06-01T01:19:29;14.50;1.00
3005;DHT22;1512;51.486;6.610;2023-06-01T01:23:54;14.40;1.00
3005;DHT22;1512;51.486;6.610;2023-06-01T01:32:11;14.30;1.00
3005;DHT22;1512;51.486;6.610;2023-06-01T01:36:20;14.10;1.00
3005;DHT22;1512;51.486;6.610;2023-06-01T01:40:29;14.10;1.00
3005;DHT22;1512;51.486;6.610;2023-06-01T01:44:38;14.00;1.00
3005;DHT22;1512;51.486;6.610;2023-06-01T01:49:07;14.10;1.00
3005;DHT22;1512;51.486;6.610;2023-06-01T01:53:15;13.80;1.00
3005;DHT22;1512;51.486;6.610;2023-06-01T02:01:55;13.70;1.00
3005;DHT22;1512;51.486;6.610;2023-06-01T02:06:04;13.70;1.00
3005;DHT22;1512;51.486;6.610;2023-06-01T02:10:13;13.70;1.00
3005;DHT22;1512;51.486;6.610;2023-06-01T02:14:22;13.60;1.00
3005;DHT22;1512;51.486;6.610;2023-06-01T02:18:30;13.40;1.00
3005;DHT22;1512;51.486;6.610;2023-06-01T02:22:39;13.30;1.00
3005;DHT22;1512;51.486;6.610;2023-06-01T02:26:48;13.10;1.00
3005;DHT22;1512;51.486;6.610;2023-06-01T02:30:59;13.20;1.00
3005;DHT22;1512;51.486;6.610;2023-06-01T02:35:08;13.20;1.00
3005;DHT22;1512;51.486;6.610;2023-06-01T02:39:17;13.10;1.00
3005;DHT22;1512;51.486;6.610;2023-06-01T02:43:26;12.90;1.00
3005;DHT22;1512;51.486;6.610;2023-06-01T02:47:34;12.80;1.00
3005;DHT22;1512;51.486;6.610;2023-06-01T02:51:43;12.80;1.00
3005;DHT22;1512;51.486;6.610;2023-06-01T02:55:52;12.80;1.00
3005;DHT22;1512;51.486;6.610;2023-06-01T03:00:00;12.70;1.00
3005;DHT22;1512;51.486;6.610;2023-06-01T03:04:09;12.70;1.00
3005;DHT22;1512;51.486;6.610;2023-06-01T03:08:18;12.90;1.00
3005;DHT22;1512;51.486;6.610;2023-06-01T03:12:27;12.80;1.00
3005;DHT22;1512;51.486;6.610;2023-06-01T03:16:36;12.70;1.00
3005;DHT22;1512;51.486;6.610;2023-06-01T03:20:45;12.70;1.00
3005;DHT22;1512;51.486;6.610;2023-06-01T03:24:55;12.60;1.00
3005;DHT22;1512;51.486;6.610;2023-06-01T03:29:05;12.60;1.00
3005;DHT22;1512;51.486;6.610;2023-06-01T03:33:14;12.60;1.00
3005;DHT22;1512;51.486;6.610;2023-06-01T03:37:22;12.60;1.00
3005;DHT22;1512;51.486;6.610;2023-06-01T03:41:31;12.50;1.00
3005;DHT22;1512;51.486;6.610;2023-06-01T03:45:59;12.60;1.00
3005;DHT22;1512;51.486;6.610;2023-06-01T03:50:09;12.50;1.00
3005;DHT22;1512;51.486;6.610;2023-06-01T03:54:19;12.40;1.00
3005;DHT22;1512;51.486;6.610;2023-06-01T03:58:28;12.60;1.00
3005;DHT22;1512;51.486;6.610;2023-06-01T04:02:38;12.60;1.00
3005;DHT22;1512;51.486;6.610;2023-06-01T04:06:47;12.50;1.00
3005;DHT22;1512;51.486;6.610;2023-06-01T04:10:57;12.40;1.00
3005;DHT22;1512;51.486;6.610;2023-06-01T04:15:07;12.40;1.00
3005;DHT22;1512;51.486;6.610;2023-06-01T04:19:16;12.40;1.00
3005;DHT22;1512;51.486;6.610;2023-06-01T04:23:25;12.50;1.00
3005;DHT22;1512;51.486;6.610;2023-06-01T04:27:33;12.40;1.00
3005;DHT22;1512;51.486;6.610;2023-06-01T04:31:46;12.40;1.00
3005;DHT22;1512;51.486;6.610;2023-06-01T04:35:54;12.60;1.00
3005;DHT22;1512;51.486;6.610;2023-06-01T04:40:04;12.30;1.00
3005;DHT22;1512;51.486;6.610;2023-06-01T04:44:17;12.40;1.00
3005;DHT22;1512;51.486;6.610;2023-06-01T04:48:26;12.60;1.00
3005;DHT22;1512;51.486;6.610;2023-06-01T04:52:37;12.60;1.00
3005;DHT22;1512;51.486;6.610;2023-06-01T04:56:45;12.60;1.00
3005;DHT22;1512;51.486;6.610;2023-06-01T05:00:54;12.80;1.00
3005;DHT22;1512;51.486;6.610;2023-06-01T05:05:07;12.80;1.00
3005;DHT22;1512;51.486;6.610;2023-06-01T05:09:16;12.70;1.00
3005;DHT22;1512;51.486;6.610;2023-06-01T05:13:26;12.80;1.00
3005;DHT22;1512;51.486;6.610;2023-06-01T05:17:34;12.70;1.00
3005;DHT22;1512;51.486;6.610;2023-06-01T05:21:43;12.70;1.00
3005;DHT22;1512;51.486;6.610;2023-06-01T05:25:53;12.60;1.00
3005;DHT22;1512;51.486;6.610;2023-06-01T05:30:04;12.60;1.00
3005;DHT22;1512;51.486;6.610;2023-06-01T05:34:14;12.60;1.00
3005;DHT22;1512;51.486;6.610;2023-06-01T05:38:23;12.70;1.00
3005;DHT22;1512;51.486;6.610;2023-06-01T05:42:31;12.70;1.00
3005;DHT22;1512;51.486;6.610;2023-06-01T05:46:40;12.70;1.00
3005;DHT22;1512;51.486;6.610;2023-06-01T05:50:49;12.80;1.00
3005;DHT22;1512;51.486;6.610;2023-06-01T05:54:57;12.70;99.90
3005;DHT22;1512;51.486;6.610;2023-06-01T05:59:06;12.70;99.90
3005;DHT22;1512;51.486;6.610;2023-06-01T06:03:15;12.60;1.00
3005;DHT22;1512;51.486;6.610;2023-06-01T06:07:24;12.70;1.00
3005;DHT22;1512;51.486;6.610;2023-06-01T06:11:33;12.90;99.90
3005;DHT22;1512;51.486;6.610;2023-06-01T06:15:42;12.90;99.90
3005;DHT22;1512;51.486;6.610;2023-06-01T06:19:50;12.90;1.00
3005;DHT22;1512;51.486;6.610;2023-06-01T06:23:59;13.10;1.00
3005;DHT22;1512;51.486;6.610;2023-06-01T06:28:08;13.20;1.00
3005;DHT22;1512;51.486;6.610;2023-06-01T06:32:17;13.40;99.90
3005;DHT22;1512;51.486;6.610;2023-06-01T06:36:27;13.40;99.90
3005;DHT22;1512;51.486;6.610;2023-06-01T06:40:36;13.40;99.90
3005;DHT22;1512;51.486;6.610;2023-06-01T06:44:45;13.40;99.90
3005;DHT22;1512;51.486;6.610;2023-06-01T06:48:53;13.50;99.90
3005;DHT22;1512;51.486;6.610;2023-06-01T06:53:02;13.70;99.90
3005;DHT22;1512;51.486;6.610;2023-06-01T06:57:11;13.90;99.90
3005;DHT22;1512;51.486;6.610;2023-06-01T07:01:20;14.00;99.90
3005;DHT22;1512;51.486;6.610;2023-06-01T07:05:29;14.20;99.90
3005;DHT22;1512;51.486;6.610;2023-06-01T07:09:38;14.50;99.90
3005;DHT22;1512;51.486;6.610;2023-06-01T07:13:48;14.70;99.90
3005;DHT22;1512;51.486;6.610;2023-06-01T07:17:57;14.90;99.90
3005;DHT22;1512;51.486;6.610;2023-06-01T07:22:06;14.70;99.90
3005;DHT22;1512;51.486;6.610;2023-06-01T07:26:15;14.80;99.90
3005;DHT22;1512;51.486;6.610;2023-06-01T07:30:23;14.70;99.90
3005;DHT22;1512;51.486;6.610;2023-06-01T07:34:32;14.70;99.90
3005;DHT22;1512;51.486;6.610;2023-06-01T07:38:41;14.80;99.90
3005;DHT22;1512;51.486;6.610;2023-06-01T07:42:50;15.10;99.90
3005;DHT22;1512;51.486;6.610;2023-06-01T07:46:58;15.30;99.90
3005;DHT22;1512;51.486;6.610;2023-06-01T07:51:07;15.30;99.90
3005;DHT22;1512;51.486;6.610;2023-06-01T07:55:16;15.20;99.90
3005;DHT22;1512;51.486;6.610;2023-06-01T07:59:25;15.30;99.90
3005;DHT22;1512;51.486;6.610;2023-06-01T08:03:33;15.30;99.90
3005;DHT22;1512;51.486;6.610;2023-06-01T08:07:43;15.30;99.90
3005;DHT22;1512;51.486;6.610;2023-06-01T08:11:53;15.50;99.90
3005;DHT22;1512;51.486;6.610;2023-06-01T08:16:03;15.70;99.90
3005;DHT22;1512;51.486;6.610;2023-06-01T08:20:12;15.90;99.90
3005;DHT22;1512;51.486;6.610;2023-06-01T08:24:21;16.00;99.90
3005;DHT22;1512;51.486;6.610;2023-06-01T08:28:32;16.20;99.90
3005;DHT22;1512;51.486;6.610;2023-06-01T08:32:40;16.40;99.90
3005;DHT22;1512;51.486;6.610;2023-06-01T08:36:50;16.50;99.90
3005;DHT22;1512;51.486;6.610;2023-06-01T08:41:03;16.60;99.90
3005;DHT22;1512;51.486;6.610;2023-06-01T08:45:13;16.80;99.90
3005;DHT22;1512;51.486;6.610;2023-06-01T08:49:23;16.90;99.90
3005;DHT22;1512;51.486;6.610;2023-06-01T08:53:33;16.90;99.90
3005;DHT22;1512;51.486;6.610;2023-06-01T08:57:43;16.80;99.90
3005;DHT22;1512;51.486;6.610;2023-06-01T09:01:53;16.90;99.90
3005;DHT22;1512;51.486;6.610;2023-06-01T09:06:02;17.20;99.90
3005;DHT22;1512;51.486;6.610;2023-06-01T09:10:11;17.20;99.90
3005;DHT22;1512;51.486;6.610;2023-06-01T09:14:21;17.30;99.90
3005;DHT22;1512;51.486;6.610;2023-06-01T09:18:30;17.30;99.90
3005;DHT22;1512;51.486;6.610;2023-06-01T09:22:41;17.60;99.90
3005;DHT22;1512;51.486;6.610;2023-06-01T09:26:51;17.90;99.90
3005;DHT22;1512;51.486;6.610;2023-06-01T09:30:59;17.80;99.90
3005;DHT22;1512;51.486;6.610;2023-06-01T09:35:08;18.00;99.90
3005;DHT22;1512;51.486;6.610;2023-06-01T09:39:24;18.30;99.90
3005;DHT22;1512;51.486;6.610;2023-06-01T09:43:29;18.40;99.90
3005;DHT22;1512;51.486;6.610;2023-06-01T09:47:39;18.60;99.90
3005;DHT22;1512;51.486;6.610;2023-06-01T09:51:48;18.90;99.90
3005;DHT22;1512;51.486;6.610;2023-06-01T09:55:58;18.90;99.90
3005;DHT22;1512;51.486;6.610;2023-06-01T10:00:08;18.90;99.90
3005;DHT22;1512;51.486;6.610;2023-06-01T10:04:21;19.10;99.90
3005;DHT22;1512;51.486;6.610;2023-06-01T10:08:31;19.40;99.90
3005;DHT22;1512;51.486;6.610;2023-06-01T10:12:40;19.30;99.90
3005;DHT22;1512;51.486;6.610;2023-06-01T10:16:53;19.40;99.90
3005;DHT22;1512;51.486;6.610;2023-06-01T10:21:03;19.50;99.90
3005;DHT22;1512;51.486;6.610;2023-06-01T10:25:15;19.80;99.90
3005;DHT22;1512;51.486;6.610;2023-06-01T10:29:28;19.70;99.90
3005;DHT22;1512;51.486;6.610;2023-06-01T10:33:54;19.90;99.90
3005;DHT22;1512;51.486;6.610;2023-06-01T10:42:34;20.20;99.90
3005;DHT22;1512;51.486;6.610;2023-06-01T10:46:43;20.40;99.90
3005;DHT22;1512;51.486;6.610;2023-06-01T10:55:29;20.60;99.90
3005;DHT22;1512;51.486;6.610;2023-06-01T10:59:34;20.60;99.90
3005;DHT22;1512;51.486;6.610;2023-06-01T11:03:45;20.30;99.90
3005;DHT22;1512;51.486;6.610;2023-06-01T11:07:55;20.40;99.90
3005;DHT22;1512;51.486;6.610;2023-06-01T11:12:04;20.50;99.90
3005;DHT22;1512;51.486;6.610;2023-06-01T11:20:27;20.80;99.90
3005;DHT22;1512;51.486;6.610;2023-06-01T11:24:37;20.80;99.90
3005;DHT22;1512;51.486;6.610;2023-06-01T11:28:47;20.80;99.90
3005;DHT22;1512;51.486;6.610;2023-06-01T11:32:57;21.00;99.90
3005;DHT22;1512;51.486;6.610;2023-06-01T11:41:36;21.00;99.90
3005;DHT22;1512;51.486;6.610;2023-06-01T11:45:45;21.30;99.90
3005;DHT22;1512;51.486;6.610;2023-06-01T11:49:54;21.20;99.90
3005;DHT22;1512;51.486;6.610;2023-06-01T11:54:03;21.10;99.90
3005;DHT22;1512;51.486;6.610;2023-06-01T11:58:12;21.30;99.90
3005;DHT22;1512;51.486;6.610;2023-06-01T12:06:33;21.70;99.90
3005;DHT22;1512;51.486;6.610;2023-06-01T12:10:45;21.60;99.90
3005;DHT22;1512;51.486;6.610;2023-06-01T12:14:55;21.70;99.90
3005;DHT22;1512;51.486;6.610;2023-06-01T12:19:10;21.70;99.90
3005;DHT22;1512;51.486;6.610;2023-06-01T12:23:20;21.70;99.90
3005;DHT22;1512;51.486;6.610;2023-06-01T12:27:30;21.60;99.90
3005;DHT22;1512;51.486;6.610;2023-06-01T12:31:51;21.60;99.90
3005;DHT22;1512;51.486;6.610;2023-06-01T12:35:51;21.50;99.90
3005;DHT22;1512;51.486;6.610;2023-06-01T12:40:00;21.70;99.90
3005;DHT22;1512;51.486;6.610;2023-06-01T12:44:17;21.90;99.90
3005;DHT22;1512;51.486;6.610;2023-06-01T12:48:36;21.60;99.90
3005;DHT22;1512;51.486;6.610;2023-06-01T12:52:45;21.40;99.90
3005;DHT22;1512;51.486;6.610;2023-06-01T12:56:53;21.50;99.90
3005;DHT22;1512;51.486;6.610;2023-06-01T13:01:03;21.40;99.90
3005;DHT22;1512;51.486;6.610;2023-06-01T13:05:12;21.60;99.90
3005;DHT22;1512;51.486;6.610;2023-06-01T13:09:22;21.70;99.90
3005;DHT22;1512;51.486;6.610;2023-06-01T13:13:31;22.00;99.90
3005;DHT22;1512;51.486;6.610;2023-06-01T13:17:40;22.10;99.90
3005;DHT22;1512;51.486;6.610;2023-06-01T13:21:49;22.10;99.90
3005;DHT22;1512;51.486;6.610;2023-06-01T13:25:58;22.00;99.90
3005;DHT22;1512;51.486;6.610;2023-06-01T13:30:08;22.00;99.90
3005;DHT22;1512;51.486;6.610;2023-06-01T13:34:17;22.00;99.90
3005;DHT22;1512;51.486;6.610;2023-06-01T13:38:27;22.00;99.90
3005;DHT22;1512;51.486;6.610;2023-06-01T13:42:36;22.10;99.90
3005;DHT22;1512;51.486;6.610;2023-06-01T13:46:45;22.30;99.90
3005;DHT22;1512;51.486;6.610;2023-06-01T13:50:54;22.40;99.90
3005;DHT22;1512;51.486;6.610;2023-06-01T13:55:03;22.50;99.90
3005;DHT22;1512;51.486;6.610;2023-06-01T13:59:11;22.50;99.90
3005;DHT22;1512;51.486;6.610;2023-06-01T14:03:20;22.50;99.90
3005;DHT22;1512;51.486;6.610;2023-06-01T14:07:29;22.10;99.90
3005;DHT22;1512;51.486;6.610;2023-06-01T14:11:38;21.90;99.90
3005;DHT22;1512;51.486;6.610;2023-06-01T14:15:47;22.00;99.90
3005;DHT22;1512;51.486;6.610;2023-06-01T14:19:55;22.20;99.90
3005;DHT22;1512;51.486;6.610;2023-06-01T14:24:04;22.40;99.90
3005;DHT22;1512;51.486;6.610;2023-06-01T14:28:13;22.60;99.90
3005;DHT22;1512;51.486;6.610;2023-06-01T14:32:22;22.70;99.90
3005;DHT22;1512;51.486;6.610;2023-06-01T14:36:30;22.40;99.90
3005;DHT22;1512;51.486;6.610;2023-06-01T14:40:41;22.60;99.90
3005;DHT22;1512;51.486;6.610;2023-06-01T14:44:49;22.70;99.90
3005;DHT22;1512;51.486;6.610;2023-06-01T14:49:00;22.80;99.90
3005;DHT22;1512;51.486;6.610;2023-06-01T14:53:10;22.70;99.90
3005;DHT22;1512;51.486;6.610;2023-06-01T14:57:18;22.80;99.90
3005;DHT22;1512;51.486;6.610;2023-06-01T15:01:28;22.90;99.90
3005;DHT22;1512;51.486;6.610;2023-06-01T15:05:37;23.00;99.90
3005;DHT22;1512;51.486;6.610;2023-06-01T15:09:45;23.20;99.90
3005;DHT22;1512;51.486;6.610;2023-06-01T15:13:54;23.20;99.90
3005;DHT22;1512;51.486;6.610;2023-06-01T15:18:03;23.00;99.90
3005;DHT22;1512;51.486;6.610;2023-06-01T15:22:12;22.80;99.90
3005;DHT22;1512;51.486;6.610;2023-06-01T15:26:21;22.90;99.90
3005;DHT22;1512;51.486;6.610;2023-06-01T15:30:30;22.90;99.90
3005;DHT22;1512;51.486;6.610;2023-06-01T15:34:39;22.90;99.90
3005;DHT22;1512;51.486;6.610;2023-06-01T15:39:10;22.90;99.90
3005;DHT22;1512;51.486;6.610;2023-06-01T15:43:19;22.90;99.90
3005;DHT22;1512;51.486;6.610;2023-06-01T15:47:28;22.90;99.90
3005;DHT22;1512;51.486;6.610;2023-06-01T15:51:36;22.80;99.90
3005;DHT22;1512;51.486;6.610;2023-06-01T15:55:45;22.70;99.90
3005;DHT22;1512;51.486;6.610;2023-06-01T15:59:54;22.60;99.90
3005;DHT22;1512;51.486;6.610;2023-06-01T16:04:03;22.50;99.90
3005;DHT22;1512;51.486;6.610;2023-06-01T16:08:12;22.50;99.90
3005;DHT22;1512;51.486;6.610;2023-06-01T16:12:20;22.50;99.90
3005;DHT22;1512;51.486;6.610;2023-06-01T16:16:29;22.50;99.90
3005;DHT22;1512;51.486;6.610;2023-06-01T16:20:38;22.40;99.90
3005;DHT22;1512;51.486;6.610;2023-06-01T16:24:47;22.30;99.90
3005;DHT22;1512;51.486;6.610;2023-06-01T16:28:56;22.20;99.90
3005;DHT22;1512;51.486;6.610;2023-06-01T16:33:05;21.80;99.90
3005;DHT22;1512;51.486;6.610;2023-06-01T16:37:13;21.60;99.90
3005;DHT22;1512;51.486;6.610;2023-06-01T16:41:22;21.50;99.90
3005;DHT22;1512;51.486;6.610;2023-06-01T16:45:31;21.40;99.90
3005;DHT22;1512;51.486;6.610;2023-06-01T16:49:40;21.30;99.90
3005;DHT22;1512;51.486;6.610;2023-06-01T16:53:49;21.30;99.90
3005;DHT22;1512;51.486;6.610;2023-06-01T16:58:01;21.00;99.90
3005;DHT22;1512;51.486;6.610;2023-06-01T17:02:09;20.90;99.90
3005;DHT22;1512;51.486;6.610;2023-06-01T17:06:18;20.80;99.90
3005;DHT22;1512;51.486;6.610;2023-06-01T17:10:28;20.60;99.90
3005;DHT22;1512;51.486;6.610;2023-06-01T17:14:37;20.30;99.90
3005;DHT22;1512;51.486;6.610;2023-06-01T17:18:45;20.30;99.90
3005;DHT22;1512;51.486;6.610;2023-06-01T17:22:54;20.20;99.90
3005;DHT22;1512;51.486;6.610;2023-06-01T17:27:03;20.10;99.90
3005;DHT22;1512;51.486;6.610;2023-06-01T17:31:13;20.10;99.90
3005;DHT22;1512;51.486;6.610;2023-06-01T17:35:23;19.90;99.90
3005;DHT22;1512;51.486;6.610;2023-06-01T17:39:35;19.80;99.90
3005;DHT22;1512;51.486;6.610;2023-06-01T17:43:45;19.90;99.90
3005;DHT22;1512;51.486;6.610;2023-06-01T17:47:54;19.70;99.90
3005;DHT22;1512;51.486;6.610;2023-06-01T17:52:03;19.50;99.90
3005;DHT22;1512;51.486;6.610;2023-06-01T17:56:12;19.30;99.90
3005;DHT22;1512;51.486;6.610;2023-06-01T18:00:21;19.30;99.90
3005;DHT22;1512;51.486;6.610;2023-06-01T18:04:30;19.00;99.90
3005;DHT22;1512;51.486;6.610;2023-06-01T18:08:38;18.90;99.90
3005;DHT22;1512;51.486;6.610;2023-06-01T18:12:47;18.70;99.90
3005;DHT22;1512;51.486;6.610;2023-06-01T18:16:56;18.40;99.90
3005;DHT22;1512;51.486;6.610;2023-06-01T18:21:05;18.20;99.90
3005;DHT22;1512;51.486;6.610;2023-06-01T18:25:13;18.00;99.90
3005;DHT22;1512;51.486;6.610;2023-06-01T18:29:22;18.00;99.90
3005;DHT22;1512;51.486;6.610;2023-06-01T18:33:31;18.00;99.90
3005;DHT22;1512;51.486;6.610;2023-06-01T18:37:40;18.00;99.90
3005;DHT22;1512;51.486;6.610;2023-06-01T18:41:48;17.80;99.90
3005;DHT22;1512;51.486;6.610;2023-06-01T18:45:57;17.80;99.90
3005;DHT22;1512;51.486;6.610;2023-06-01T18:50:07;17.60;99.90
3005;DHT22;1512;51.486;6.610;2023-06-01T18:54:16;17.50;99.90
3005;DHT22;1512;51.486;6.610;2023-06-01T18:58:24;17.60;99.90
3005;DHT22;1512;51.486;6.610;2023-06-01T19:02:34;17.30;99.90
3005;DHT22;1512;51.486;6.610;2023-06-01T19:06:45;17.20;99.90
3005;DHT22;1512;51.486;6.610;2023-06-01T19:11:06;17.00;99.90
3005;DHT22;1512;51.486;6.610;2023-06-01T19:15:16;17.00;99.90
3005;DHT22;1512;51.486;6.610;2023-06-01T19:19:26;16.90;99.90
3005;DHT22;1512;51.486;6.610;2023-06-01T19:23:36;16.90;99.90
3005;DHT22;1512;51.486;6.610;2023-06-01T19:27:44;16.80;99.90
3005;DHT22;1512;51.486;6.610;2023-06-01T19:31:54;16.80;99.90
3005;DHT22;1512;51.486;6.610;2023-06-01T19:36:05;16.80;99.90
3005;DHT22;1512;51.486;6.610;2023-06-01T19:40:16;16.60;99.90
3005;DHT22;1512;51.486;6.610;2023-06-01T19:44:31;16.60;99.90
3005;DHT22;1512;51.486;6.610;2023-06-01T19:48:40;16.30;99.90
3005;DHT22;1512;51.486;6.610;2023-06-01T19:52:49;16.30;99.90
3005;DHT22;1512;51.486;6.610;2023-06-01T19:56:58;16.10;99.90
3005;DHT22;1512;51.486;6.610;2023-06-01T20:01:08;16.10;99.90
3005;DHT22;1512;51.486;6.610;2023-06-01T20:05:19;16.00;99.90
3005;DHT22;1512;51.486;6.610;2023-06-01T20:09:28;15.90;99.90
3005;DHT22;1512;51.486;6.610;2023-06-01T20:13:37;15.70;99.90
3005;DHT22;1512;51.486;6.610;2023-06-01T20:17:45;15.70;99.90
3005;DHT22;1512;51.486;6.610;2023-06-01T20:21:55;15.50;99.90
3005;DHT22;1512;51.486;6.610;2023-06-01T20:26:06;15.40;99.90
3005;DHT22;1512;51.486;6.610;2023-06-01T20:34:51;15.20;99.90
3005;DHT22;1512;51.486;6.610;2023-06-01T20:39:00;15.20;99.90
3005;DHT22;1512;51.486;6.610;2023-06-01T20:43:20;14.90;99.90
3005;DHT22;1512;51.486;6.610;2023-06-01T20:47:28;15.00;99.90
3005;DHT22;1512;51.486;6.610;2023-06-01T20:51:39;15.00;99.90
3005;DHT22;1512;51.486;6.610;2023-06-01T20:55:48;15.00;99.90
3005;DHT22;1512;51.486;6.610;2023-06-01T20:59:58;15.00;99.90
3005;DHT22;1512;51.486;6.610;2023-06-01T21:04:31;14.80;99.90
3005;DHT22;1512;51.486;6.610;2023-06-01T21:08:19;14.60;99.90
3005;DHT22;1512;51.486;6.610;2023-06-01T21:12:27;14.50;99.90
3005;DHT22;1512;51.486;6.610;2023-06-01T21:16:36;14.50;99.90
3005;DHT22;1512;51.486;6.610;2023-06-01T21:20:45;14.40;99.90
3005;DHT22;1512;51.486;6.610;2023-06-01T21:24:54;14.30;99.90
3005;DHT22;1512;51.486;6.610;2023-06-01T21:29:03;14.50;99.90
3005;DHT22;1512;51.486;6.610;2023-06-01T21:33:12;14.50;99.90
3005;DHT22;1512;51.486;6.610;2023-06-01T21:37:21;14.40;99.90
3005;DHT22;1512;51.486;6.610;2023-06-01T21:41:29;14.40;99.90
3005;DHT22;1512;51.486;6.610;2023-06-01T21:45:38;14.30;99.90
3005;DHT22;1512;51.486;6.610;2023-06-01T21:49:47;14.30;99.90
3005;DHT22;1512;51.486;6.610;2023-06-01T21:53:56;14.20;99.90
3005;DHT22;1512;51.486;6.610;2023-06-01T21:58:05;14.30;99.90
3005;DHT22;1512;51.486;6.610;2023-06-01T22:02:13;14.20;99.90
3005;DHT22;1512;51.486;6.610;2023-06-01T22:06:23;14.20;99.90
3005;DHT22;1512;51.486;6.610;2023-06-01T22:10:32;14.20;99.90
3005;DHT22;1512;51.486;6.610;2023-06-01T22:14:40;14.10;99.90
3005;DHT22;1512;51.486;6.610;2023-06-01T22:18:50;14.10;99.90
3005;DHT22;1512;51.486;6.610;2023-06-01T22:22:59;14.10;99.90
3005;DHT22;1512;51.486;6.610;2023-06-01T22:27:07;14.20;99.90
3005;DHT22;1512;51.486;6.610;2023-06-01T22:31:16;14.30;99.90
3005;DHT22;1512;51.486;6.610;2023-06-01T22:35:25;14.20;99.90
3005;DHT22;1512;51.486;6.610;2023-06-01T22:39:34;14.20;99.90
3005;DHT22;1512;51.486;6.610;2023-06-01T22:43:43;14.20;99.90
3005;DHT22;1512;51.486;6.610;2023-06-01T22:47:51;14.20;99.90
3005;DHT22;1512;51.486;6.610;2023-06-01T22:52:01;14.20;99.90
3005;DHT22;1512;51.486;6.610;2023-06-01T22:56:10;14.20;99.90
3005;DHT22;1512;51.486;6.610;2023-06-01T23:00:19;14.00;99.90
3005;DHT22;1512;51.486;6.610;2023-06-01T23:04:28;13.80;99.90
3005;DHT22;1512;51.486;6.610;2023-06-01T23:08:38;13.90;99.90
3005;DHT22;1512;51.486;6.610;2023-06-01T23:12:49;14.00;99.90
3005;DHT22;1512;51.486;6.610;2023-06-01T23:17:02;14.00;99.90
3005;DHT22;1512;51.486;6.610;2023-06-01T23:21:10;14.00;99.90
3005;DHT22;1512;51.486;6.610;2023-06-01T23:25:21;14.00;99.90
3005;DHT22;1512;51.486;6.610;2023-06-01T23:29:30;13.90;99.90
3005;DHT22;1512;51.486;6.610;2023-06-01T23:33:39;14.00;99.90
3005;DHT22;1512;51.486;6.610;2023-06-01T23:42:04;13.90;99.90
3005;DHT22;1512;51.486;6.610;2023-06-01T23:46:13;13.80;99.90
3005;DHT22;1512;51.486;6.610;2023-06-01T23:50:22;13.90;99.90
3005;DHT22;1512;51.486;6.610;2023-06-01T23:54:30;13.90;99.90
3005;DHT22;1512;51.486;6.610;2023-06-01T23:58:39;14.00;99.90
